createdAt,value
2017-06-28T14:40:46.896Z,2.93
2017-06-28T14:43:14.554Z,3.40
2017-06-28T14:45:42.293Z,3.00
2017-06-28T14:48:10.378Z,2.93
2017-06-28T14:50:38.134Z,2.70
2017-06-28T14:53:12.102Z,3.27
2017-06-28T14:55:40.095Z,2.30
2017-06-28T14:58:07.881Z,2.00
2017-06-28T15:00:35.668Z,2.50
2017-06-28T15:03:03.531Z,1.63
2017-06-28T15:05:40.903Z,2.80
2017-06-28T15:08:09.037Z,2.13
2017-06-28T15:10:38.280Z,1.80
2017-06-28T15:13:09.583Z,2.63
2017-06-28T15:15:37.376Z,2.33
2017-06-28T15:18:05.129Z,1.40
2017-06-28T15:20:32.960Z,2.33
2017-06-28T15:23:01.691Z,2.13
2017-06-28T15:25:30.645Z,1.90
2017-06-28T15:27:58.507Z,2.57
2017-06-28T15:30:27.435Z,1.50
2017-06-28T15:32:55.482Z,2.30
2017-06-28T15:35:23.600Z,1.87
2017-06-28T15:37:51.602Z,2.33
2017-06-28T15:40:29.580Z,2.17
2017-06-28T15:42:58.524Z,1.57
2017-06-28T15:45:26.503Z,2.47
2017-06-28T15:47:58.374Z,3.40
2017-06-28T15:50:27.456Z,2.60
2017-06-28T15:52:56.120Z,2.60
2017-06-28T15:55:29.760Z,2.80
2017-06-28T15:57:58.155Z,2.43
2017-06-28T16:00:28.052Z,2.13
2017-06-28T16:02:56.669Z,2.57
2017-06-28T16:05:25.766Z,2.63
2017-06-28T16:07:55.322Z,3.17
2017-06-28T16:10:24.249Z,2.40
2017-06-28T16:12:53.303Z,3.07
2017-06-28T16:15:21.835Z,2.67
2017-06-28T16:17:49.687Z,2.20
2017-06-28T16:20:17.419Z,2.70
2017-06-28T16:22:47.175Z,2.30
2017-06-28T16:25:15.050Z,2.27
2017-06-28T16:27:43.140Z,2.43
2017-06-28T16:30:10.924Z,2.00
2017-06-28T16:32:38.667Z,2.03
2017-06-28T16:35:06.480Z,2.80
2017-06-28T16:37:34.448Z,2.60
2017-06-28T16:40:02.372Z,2.87
2017-06-28T16:42:31.048Z,2.70
2017-06-28T16:44:58.946Z,2.40
2017-06-28T16:47:26.803Z,3.07
2017-06-28T16:49:54.660Z,3.47
2017-06-28T16:52:23.524Z,3.90
2017-06-28T16:54:51.354Z,3.00
2017-06-28T16:57:21.099Z,3.47
2017-06-28T16:59:49.429Z,3.50
2017-06-28T17:02:18.499Z,3.00
2017-06-28T17:04:47.488Z,2.67
2017-06-28T17:07:15.331Z,2.67
2017-06-28T17:09:43.041Z,3.73
2017-06-28T17:12:10.847Z,3.33
2017-06-28T17:14:39.004Z,2.37
2017-06-28T17:17:06.733Z,3.20
2017-06-28T17:19:34.498Z,2.60
2017-06-28T17:22:02.216Z,3.27
2017-06-28T17:24:30.034Z,2.70
2017-06-28T17:26:57.926Z,2.77
2017-06-28T17:29:25.676Z,2.07
2017-06-28T17:31:53.472Z,2.40
2017-06-28T17:34:21.283Z,2.43
2017-06-28T17:36:51.171Z,2.57
2017-06-28T17:39:43.747Z,2.60
2017-06-28T17:42:12.523Z,3.00
2017-06-28T17:44:41.947Z,2.50
2017-06-28T17:47:09.891Z,3.07
2017-06-28T17:49:37.790Z,2.40
2017-06-28T17:52:05.668Z,2.60
2017-06-28T17:54:33.388Z,2.70
2017-06-28T17:57:01.245Z,4.70
2017-06-28T17:59:29.088Z,3.50
2017-06-28T18:01:58.434Z,3.70
2017-06-28T18:04:26.179Z,3.17
2017-06-28T18:06:53.979Z,3.03
2017-06-28T18:09:21.712Z,3.33
2017-06-28T18:11:49.486Z,4.70
2017-06-28T18:14:17.226Z,4.17
2017-06-28T18:16:44.910Z,5.70
2017-06-28T18:19:12.666Z,3.77
2017-06-28T18:21:40.717Z,3.73
2017-06-28T18:24:08.564Z,4.47
2017-06-28T18:26:36.620Z,2.97
2017-06-28T18:29:04.445Z,3.80
2017-06-28T18:31:32.270Z,4.30
2017-06-28T18:34:00.773Z,3.10
2017-06-28T18:36:28.935Z,3.30
2017-06-28T18:38:57.033Z,3.40
2017-06-28T18:41:25.303Z,3.20
2017-06-28T18:43:53.244Z,2.97
2017-06-28T18:46:21.304Z,3.17
2017-06-28T18:48:49.581Z,3.27
2017-06-28T18:51:17.426Z,3.93
2017-06-28T18:53:46.363Z,4.80
2017-06-28T18:56:14.106Z,3.90
2017-06-28T18:58:43.443Z,3.80
2017-06-28T19:01:11.271Z,6.37
2017-06-28T19:03:38.995Z,6.37
2017-06-28T19:06:06.813Z,6.40
2017-06-28T19:08:35.714Z,7.07
2017-06-28T19:11:03.850Z,7.10
2017-06-28T19:13:31.873Z,7.57
2017-06-28T19:15:59.732Z,8.27
2017-06-28T19:18:28.413Z,7.50
2017-06-28T19:20:56.163Z,7.70
2017-06-28T19:23:23.967Z,7.47
2017-06-28T19:25:53.406Z,7.67
2017-06-28T19:28:21.234Z,20.40
2017-06-28T19:30:50.232Z,6.83
2017-06-28T19:33:18.093Z,5.60
2017-06-28T19:35:45.932Z,4.80
2017-06-28T19:38:13.855Z,3.93
2017-06-28T19:40:41.804Z,4.00
2017-06-28T19:43:10.278Z,3.80
2017-06-28T19:45:43.808Z,3.40
2017-06-28T19:48:11.778Z,3.67
2017-06-28T19:50:39.561Z,3.70
2017-06-28T19:53:07.670Z,4.30
2017-06-28T19:55:36.006Z,4.70
2017-06-28T19:58:03.933Z,4.60
2017-06-28T20:00:31.728Z,5.10
2017-06-28T20:02:59.501Z,5.37
2017-06-28T20:05:27.479Z,5.67
2017-06-28T20:07:55.334Z,5.40
2017-06-28T20:10:23.301Z,5.80
2017-06-28T20:12:51.070Z,6.97
2017-06-28T20:15:19.673Z,6.33
2017-06-28T20:17:47.830Z,7.00
2017-06-28T20:20:16.511Z,6.53
2017-06-28T20:22:44.509Z,7.83
2017-06-28T20:25:12.428Z,7.90
2017-06-28T20:27:41.803Z,8.03
2017-06-28T20:30:09.629Z,7.70
2017-06-28T20:32:39.483Z,6.90
2017-06-28T20:35:07.785Z,8.00
2017-06-28T20:37:35.912Z,7.80
2017-06-28T20:40:03.826Z,9.50
2017-06-28T20:42:31.674Z,10.10
2017-06-28T20:44:59.593Z,9.83
2017-06-28T20:47:27.388Z,10.80
2017-06-28T20:49:55.072Z,9.30
2017-06-28T20:52:22.811Z,9.53
2017-06-28T20:54:50.593Z,8.90
2017-06-28T20:57:18.626Z,8.60
2017-06-28T20:59:46.460Z,9.70
2017-06-28T21:02:14.143Z,10.67
2017-06-28T21:04:41.849Z,9.63
2017-06-28T21:07:10.358Z,10.17
2017-06-28T21:09:38.431Z,10.30
2017-06-28T21:12:06.203Z,10.27
2017-06-28T21:14:33.942Z,9.27
2017-06-28T21:17:01.715Z,9.93
2017-06-28T21:19:29.578Z,10.03
2017-06-28T21:21:57.371Z,10.00
2017-06-28T21:24:25.107Z,9.70
2017-06-28T21:26:52.942Z,10.63
2017-06-28T21:29:20.632Z,10.93
2017-06-28T21:31:48.363Z,12.27
2017-06-28T21:34:16.098Z,11.57
2017-06-28T21:36:43.870Z,11.50
2017-06-28T21:39:11.600Z,10.90
2017-06-28T21:41:42.087Z,10.90
2017-06-28T21:44:11.962Z,9.97
2017-06-28T21:46:42.367Z,11.37
2017-06-28T21:49:11.092Z,10.80
2017-06-28T21:51:38.811Z,11.60
2017-06-28T21:54:06.598Z,11.90
2017-06-28T21:56:34.355Z,11.97
2017-06-28T21:59:02.115Z,11.43
2017-06-28T22:01:29.916Z,10.77
2017-06-28T22:03:57.591Z,11.50
2017-06-28T22:06:25.271Z,10.10
2017-06-28T22:08:52.996Z,9.40
2017-06-28T22:11:21.492Z,10.50
2017-06-28T22:13:49.236Z,11.87
2017-06-28T22:16:17.885Z,11.67
2017-06-28T22:18:58.310Z,11.23
2017-06-28T22:21:31.786Z,12.93
2017-06-28T22:23:59.481Z,10.40
2017-06-28T22:26:27.791Z,10.63
2017-06-28T22:28:55.536Z,10.77
2017-06-28T22:31:23.315Z,12.07
2017-06-28T22:33:51.652Z,12.30
2017-06-28T22:36:19.443Z,11.87
2017-06-28T22:38:47.101Z,12.97
2017-06-28T22:41:15.561Z,14.60
2017-06-28T22:43:43.246Z,12.73
2017-06-28T22:46:11.766Z,12.40
2017-06-28T22:48:39.425Z,11.83
2017-06-28T22:51:07.190Z,9.97
2017-06-28T22:53:34.958Z,9.70
2017-06-28T22:56:02.626Z,10.57
2017-06-28T22:58:30.363Z,10.40
2017-06-28T23:00:58.051Z,9.60
2017-06-28T23:03:25.818Z,9.93
2017-06-28T23:05:53.675Z,10.47
2017-06-28T23:08:21.448Z,11.77
2017-06-28T23:10:49.182Z,10.73
2017-06-28T23:13:16.892Z,11.20
2017-06-28T23:15:44.667Z,11.10
2017-06-28T23:18:12.377Z,10.97
2017-06-28T23:20:40.060Z,10.73
2017-06-28T23:23:08.539Z,9.70
2017-06-28T23:25:36.199Z,9.80
2017-06-28T23:28:04.650Z,8.60
2017-06-28T23:30:32.376Z,6.70
2017-06-28T23:33:00.033Z,5.90
2017-06-28T23:35:27.805Z,5.00
2017-06-28T23:37:55.514Z,5.77
2017-06-28T23:40:23.216Z,6.27
2017-06-28T23:42:56.772Z,6.73
2017-06-28T23:45:24.491Z,7.50
2017-06-28T23:47:52.984Z,8.20
2017-06-28T23:50:20.707Z,6.93
2017-06-28T23:52:48.421Z,6.57
2017-06-28T23:55:16.133Z,7.20
2017-06-28T23:57:43.927Z,10.00
